createdAt,value
2023-01-08T00:01:09.528Z,101898.66
2023-01-08T00:03:37.779Z,101899.84
2023-01-08T00:06:07.518Z,101858.84
2023-01-08T00:08:35.211Z,101890.22
2023-01-08T00:11:02.446Z,101870.53
2023-01-08T00:13:29.855Z,101892.25
2023-01-08T00:15:57.061Z,101899.91
2023-01-08T00:18:27.169Z,101897.88
2023-01-08T00:20:54.324Z,101904.72
2023-01-08T00:23:21.774Z,101908.75
2023-01-08T00:25:49.025Z,101907.53
2023-01-08T00:28:17.120Z,101918.78
2023-01-08T00:30:44.541Z,101918.78
2023-01-08T00:33:12.004Z,101912.75
2023-01-08T00:35:39.746Z,101917.16
2023-01-08T00:38:07.787Z,101907.50
2023-01-08T00:40:36.524Z,101914.78
2023-01-08T00:43:03.964Z,101893.84
2023-01-08T00:45:31.595Z,101920.28
2023-01-08T00:47:59.473Z,101917.84
2023-01-08T00:50:27.153Z,101923.81
2023-01-08T00:52:54.302Z,101920.22
2023-01-08T00:55:21.638Z,101921.88
2023-01-08T00:57:48.741Z,101905.38
2023-01-08T01:00:16.940Z,101905.03
2023-01-08T01:02:44.529Z,101921.47
2023-01-08T01:05:15.615Z,101929.13
2023-01-08T01:07:44.463Z,101928.31
2023-01-08T01:10:15.009Z,101936.75
2023-01-08T01:12:42.849Z,101932.25
2023-01-08T01:15:16.130Z,101936.16
2023-01-08T01:17:43.927Z,101928.97
2023-01-08T01:20:15.902Z,101934.59
2023-01-08T01:22:43.732Z,101937.06
2023-01-08T01:25:11.254Z,101902.88
2023-01-08T01:27:38.560Z,101905.69
2023-01-08T01:30:06.557Z,101941.84
2023-01-08T01:32:34.197Z,101925.81
2023-01-08T01:35:01.634Z,101920.97
2023-01-08T01:37:29.268Z,101937.06
2023-01-08T01:39:56.809Z,101918.13
2023-01-08T01:48:15.991Z,101926.09
2023-01-08T01:50:51.917Z,101936.50
2023-01-08T01:53:34.157Z,101925.25
2023-01-08T01:56:03.352Z,101922.03
2023-01-08T01:58:32.420Z,101911.16
2023-01-08T02:01:04.400Z,101907.16
2023-01-08T02:03:35.775Z,101930.53
2023-01-08T02:06:09.012Z,101931.34
2023-01-08T02:12:18.697Z,101921.56
2023-01-08T02:15:14.311Z,101917.56
2023-01-08T02:17:49.164Z,101652.66
2023-01-08T02:20:22.833Z,101932.34
2023-01-08T02:26:38.061Z,101911.50
2023-01-08T02:29:11.186Z,101919.09
2023-01-08T02:31:41.480Z,101909.50
2023-01-08T02:34:10.419Z,101914.34
2023-01-08T02:36:57.098Z,101917.16
2023-01-08T02:39:47.182Z,101919.91
2023-01-08T02:43:00.080Z,101905.03
2023-01-08T02:45:37.443Z,101919.16
2023-01-08T02:48:26.749Z,101919.56
2023-01-08T02:51:05.736Z,101920.78
2023-01-08T02:53:37.430Z,101912.72
2023-01-08T02:56:09.886Z,101912.22
2023-01-08T03:01:45.869Z,101909.47
2023-01-08T03:04:24.202Z,101913.78
2023-01-08T03:06:52.325Z,101900.59
2023-01-08T03:09:31.284Z,101937.94
2023-01-08T03:12:15.713Z,101899.81
2023-01-08T03:15:07.580Z,101920.72
2023-01-08T03:17:57.750Z,101914.34
2023-01-08T03:20:25.409Z,101917.91
2023-01-08T03:22:56.540Z,101911.47
2023-01-08T03:25:26.816Z,101924.69
2023-01-08T03:28:04.355Z,101917.91
2023-01-08T03:30:32.230Z,101926.75
2023-01-08T03:33:01.549Z,101915.72
2023-01-08T03:35:30.999Z,101935.69
2023-01-08T03:38:06.993Z,101929.31
2023-01-08T03:40:44.209Z,101948.16
2023-01-08T03:43:40.236Z,101938.19
2023-01-08T03:46:22.016Z,101926.56
2023-01-08T03:49:10.994Z,101935.28
2023-01-08T03:51:46.972Z,101920.41
2023-01-08T03:54:20.603Z,101934.94
2023-01-08T03:56:47.810Z,101926.03
2023-01-08T03:59:16.043Z,101929.31
2023-01-08T04:01:43.451Z,101928.50
2023-01-08T04:04:11.652Z,101925.22
2023-01-08T04:06:39.002Z,101905.03
2023-01-08T04:09:06.123Z,101912.69
2023-01-08T04:11:33.314Z,101909.00
2023-01-08T04:14:00.565Z,101947.63
2023-01-08T04:16:27.967Z,101937.09
2023-01-08T04:21:33.777Z,101931.00
2023-01-08T04:24:01.092Z,101875.81
2023-01-08T04:32:36.727Z,101890.31
2023-01-08T04:35:04.388Z,101885.28
2023-01-08T04:37:49.747Z,101952.38
2023-01-08T04:40:17.059Z,101936.28
2023-01-08T04:42:44.441Z,101932.97
2023-01-08T04:45:11.653Z,101953.81
2023-01-08T04:47:38.927Z,101949.06
2023-01-08T04:50:06.637Z,101945.91
2023-01-08T04:52:34.228Z,101931.47
2023-01-08T04:55:05.092Z,101900.13
2023-01-08T04:57:35.593Z,101910.13
2023-01-08T05:00:03.139Z,101936.72
2023-01-08T05:02:36.970Z,101957.06
2023-01-08T05:05:32.297Z,101948.22
2023-01-08T05:07:59.538Z,101937.25
2023-01-08T05:10:49.389Z,101950.91
2023-01-08T05:13:16.537Z,101958.50
2023-01-08T05:15:47.097Z,101876.66
2023-01-08T05:18:14.340Z,101947.97
2023-01-08T05:20:41.621Z,101964.06
2023-01-08T05:23:08.951Z,101918.47
2023-01-08T05:25:36.234Z,101958.34
2023-01-08T05:28:04.842Z,101969.47
2023-01-08T05:30:32.033Z,101965.53
2023-01-08T05:32:59.494Z,101957.56
2023-01-08T05:35:39.777Z,101908.41
2023-01-08T05:41:23.735Z,101963.16
2023-01-08T05:43:50.988Z,101953.50
2023-01-08T05:46:21.664Z,101932.34
2023-01-08T05:48:50.836Z,101955.72
2023-01-08T05:51:18.101Z,101960.91
2023-01-08T05:53:45.364Z,101969.03
2023-01-08T05:56:15.705Z,101902.59
2023-01-08T05:58:42.874Z,101935.25
2023-01-08T06:01:12.543Z,101962.31
2023-01-08T06:03:43.844Z,101953.34
2023-01-08T06:06:12.132Z,101962.66
2023-01-08T06:09:08.293Z,101964.38
2023-01-08T06:11:35.515Z,101959.66
2023-01-08T06:14:02.720Z,101972.50
2023-01-08T06:16:29.924Z,101974.91
2023-01-08T06:19:06.000Z,101935.34
2023-01-08T06:21:33.333Z,101963.69
2023-01-08T06:24:00.733Z,101979.69
2023-01-08T06:26:27.978Z,101973.44
2023-01-08T06:28:55.284Z,101973.97
2023-01-08T06:31:22.437Z,101994.09
2023-01-08T06:33:49.606Z,101945.00
2023-01-08T06:36:16.798Z,101983.47
2023-01-08T06:38:43.986Z,101964.94
2023-01-08T06:41:12.870Z,101995.78
2023-01-08T06:43:43.616Z,101967.63
2023-01-08T06:46:11.896Z,101993.13
2023-01-08T06:48:39.234Z,101935.34
2023-01-08T06:51:38.468Z,102008.09
2023-01-08T06:54:13.650Z,101929.00
2023-01-08T06:56:53.050Z,102000.34
2023-01-08T06:59:20.732Z,101996.38
2023-01-08T07:01:48.218Z,102019.75
2023-01-08T07:04:15.448Z,102012.91
2023-01-08T07:06:42.853Z,101993.84
2023-01-08T07:09:13.414Z,101983.50
2023-01-08T07:11:44.262Z,101996.81
2023-01-08T07:14:11.716Z,102025.03
2023-01-08T07:16:39.015Z,102015.28
2023-01-08T07:19:10.421Z,102031.25
2023-01-08T07:21:43.582Z,102023.63
2023-01-08T07:24:11.137Z,102031.13
2023-01-08T07:26:39.813Z,102030.63
2023-01-08T07:29:08.910Z,102017.03
2023-01-08T07:31:36.450Z,102031.28
2023-01-08T07:34:03.652Z,102033.22
2023-01-08T07:36:30.917Z,102026.13
2023-01-08T07:38:58.171Z,102029.50
2023-01-08T07:41:31.657Z,101997.41
2023-01-08T07:43:58.789Z,102038.47
2023-01-08T07:46:32.789Z,102033.94
2023-01-08T07:49:00.090Z,102040.88
2023-01-08T07:51:27.564Z,102021.72
2023-01-08T07:53:56.610Z,102037.34
2023-01-08T07:56:25.310Z,102033.00
2023-01-08T07:58:52.934Z,102036.75
2023-01-08T08:01:20.441Z,102044.03
2023-01-08T08:03:47.798Z,102028.38
2023-01-08T08:06:15.026Z,102041.28
2023-01-08T08:08:42.532Z,102026.13
2023-01-08T08:11:10.090Z,102038.69
2023-01-08T08:13:42.706Z,102046.34
2023-01-08T08:16:10.145Z,102043.19
2023-01-08T08:18:37.560Z,102044.81
2023-01-08T08:21:04.856Z,102045.63
2023-01-08T08:23:33.160Z,102046.06
2023-01-08T08:26:04.475Z,102048.09
2023-01-08T08:28:31.660Z,102040.84
2023-01-08T08:30:59.298Z,102046.09
2023-01-08T08:33:26.539Z,102044.47
2023-01-08T08:35:53.716Z,102029.19
2023-01-08T08:38:23.831Z,102032.44
2023-01-08T08:40:51.319Z,102003.00
2023-01-08T08:43:18.475Z,102030.06
2023-01-08T08:45:45.757Z,102037.72
2023-01-08T08:48:12.910Z,102001.94
2023-01-08T08:50:40.145Z,102000.72
2023-01-08T08:53:07.507Z,102034.53
2023-01-08T08:55:34.865Z,102015.66
2023-01-08T08:58:08.089Z,102048.22
2023-01-08T09:00:35.363Z,102039.81
2023-01-08T09:03:03.177Z,102057.50
2023-01-08T09:05:30.597Z,102024.16
2023-01-08T09:07:57.779Z,102000.81
2023-01-08T09:10:25.071Z,102033.41
2023-01-08T09:12:54.039Z,101984.75
2023-01-08T09:15:22.260Z,102008.50
2023-01-08T09:17:54.327Z,102022.16
2023-01-08T09:20:21.811Z,102023.34
2023-01-08T09:22:49.719Z,102002.44
2023-01-08T09:25:17.328Z,102018.13
2023-01-08T09:27:45.123Z,101995.22
2023-01-08T09:30:12.979Z,102025.75
2023-01-08T09:32:40.162Z,101997.97
2023-01-08T09:35:07.577Z,102011.66
2023-01-08T09:37:34.712Z,102009.59
2023-01-08T09:40:02.956Z,101974.13
2023-01-08T09:42:31.926Z,102005.41
2023-01-08T09:45:02.013Z,101986.13
2023-01-08T09:47:38.725Z,101999.91
2023-01-08T09:50:12.227Z,101971.25
2023-01-08T09:52:42.104Z,101983.94
2023-01-08T09:55:14.804Z,101982.22
2023-01-08T09:57:43.737Z,101985.75
2023-01-08T10:00:15.983Z,101972.72
2023-01-08T10:02:44.076Z,101969.41
2023-01-08T10:05:14.890Z,101968.97
2023-01-08T10:07:42.397Z,101956.50
2023-01-08T10:10:31.218Z,101962.47
2023-01-08T10:12:59.559Z,101962.03
2023-01-08T10:15:27.075Z,101955.38
2023-01-08T10:18:06.812Z,101958.72
2023-01-08T10:20:34.510Z,101955.69
2023-01-08T10:23:20.019Z,101953.22
2023-01-08T10:26:01.539Z,101938.16
2023-01-08T10:28:36.635Z,101909.28
2023-01-08T10:31:17.073Z,101934.44
2023-01-08T10:33:50.058Z,101937.44
2023-01-08T10:36:23.461Z,101928.91
2023-01-08T10:38:56.425Z,101935.59
2023-01-08T10:41:24.200Z,101919.25
2023-01-08T10:44:04.729Z,101923.25
2023-01-08T10:46:45.030Z,101921.66
2023-01-08T10:49:32.276Z,101897.28
2023-01-08T10:52:01.104Z,101902.38
2023-01-08T10:54:41.708Z,101901.97
2023-01-08T10:57:28.623Z,101903.16
2023-01-08T10:59:56.799Z,101894.03
2023-01-08T11:02:33.214Z,101901.06
2023-01-08T11:05:01.930Z,101891.47
2023-01-08T11:07:30.185Z,101892.72
2023-01-08T11:09:57.455Z,101883.63
2023-01-08T11:12:34.467Z,101884.16
2023-01-08T11:15:03.054Z,101864.84
2023-01-08T11:17:30.608Z,101881.47
2023-01-08T11:20:08.199Z,101876.81
2023-01-08T11:22:35.337Z,101868.66
2023-01-08T11:25:02.813Z,101871.91
2023-01-08T11:27:39.602Z,101844.91
2023-01-08T11:30:20.021Z,101863.13
2023-01-08T11:33:10.230Z,101850.41
2023-01-08T11:35:50.000Z,101862.66
2023-01-08T11:38:17.512Z,101868.03
2023-01-08T11:40:52.110Z,101853.06
2023-01-08T11:43:47.553Z,101852.63
2023-01-08T11:46:45.365Z,101842.50
2023-01-08T11:49:12.446Z,101841.13
2023-01-08T11:52:16.636Z,101840.69
2023-01-08T11:55:02.063Z,101843.50
2023-01-08T11:57:32.378Z,101837.84
2023-01-08T12:00:17.768Z,101833.38
2023-01-08T12:02:53.384Z,101830.69
2023-01-08T12:05:32.751Z,101831.75
2023-01-08T12:08:06.927Z,101824.00
2023-01-08T12:10:58.797Z,101833.81
2023-01-08T12:14:03.319Z,101820.78
2023-01-08T12:16:30.482Z,101813.13
2023-01-08T12:19:03.954Z,101807.03
2023-01-08T12:21:34.046Z,101804.25
2023-01-08T12:24:29.134Z,101811.41
2023-01-08T12:27:48.392Z,101808.44
2023-01-08T12:30:32.647Z,101806.53
2023-01-08T12:33:16.053Z,101801.19
2023-01-08T12:35:51.216Z,101807.00
2023-01-08T12:38:21.302Z,101804.38
2023-01-08T12:40:58.064Z,101796.88
2023-01-08T12:43:51.640Z,101793.56
2023-01-08T12:46:19.794Z,101794.81
2023-01-08T12:48:51.793Z,101791.53
2023-01-08T12:51:37.949Z,101787.88
2023-01-08T12:54:20.167Z,101788.78
2023-01-08T12:56:56.512Z,101783.31
2023-01-08T12:59:48.132Z,101777.72
2023-01-08T13:02:47.811Z,101773.28
2023-01-08T13:05:32.524Z,101776.59
2023-01-08T13:08:08.859Z,101768.88
2023-01-08T13:10:50.827Z,101777.75
2023-01-08T13:13:31.576Z,101767.03
2023-01-08T13:16:19.327Z,101757.81
2023-01-08T13:18:59.845Z,101761.56
2023-01-08T13:21:31.814Z,101764.25
2023-01-08T13:24:07.335Z,101763.72
2023-01-08T13:26:37.321Z,101763.34
2023-01-08T13:29:24.077Z,101731.38
2023-01-08T13:31:52.050Z,101735.78
2023-01-08T13:34:42.454Z,101762.69
2023-01-08T13:37:19.702Z,101755.97
2023-01-08T13:39:54.449Z,101754.97
2023-01-08T13:42:25.238Z,101749.56
2023-01-08T13:44:58.916Z,101745.19
2023-01-08T13:47:35.446Z,101751.91
2023-01-08T13:50:17.826Z,101747.59
2023-01-08T13:52:50.098Z,101751.03
2023-01-08T13:55:27.381Z,101753.38
2023-01-08T13:57:59.338Z,101748.00
2023-01-08T14:00:31.645Z,101755.16
2023-01-08T14:02:58.904Z,101761.66
2023-01-08T14:05:34.721Z,101754.38
2023-01-08T14:08:02.083Z,101751.19
2023-01-08T14:10:30.619Z,101755.09
2023-01-08T14:13:07.600Z,101754.28
2023-01-08T14:15:36.388Z,101747.44
2023-01-08T14:18:05.349Z,101749.31
2023-01-08T14:20:37.283Z,101754.75
2023-01-08T14:23:12.525Z,101700.38
2023-01-08T14:25:43.032Z,101751.63
2023-01-08T14:28:16.828Z,101731.44
2023-01-08T14:30:52.481Z,101746.88
2023-01-08T14:33:24.092Z,101749.50
2023-01-08T14:35:52.398Z,101753.22
2023-01-08T14:38:19.778Z,101747.88
2023-01-08T14:41:09.855Z,101752.69
2023-01-08T14:43:49.997Z,101743.53
2023-01-08T14:46:25.357Z,101748.03
2023-01-08T14:48:54.711Z,101746.41
2023-01-08T14:51:27.865Z,101746.50
2023-01-08T14:54:01.525Z,101735.38
2023-01-08T14:56:33.746Z,101742.09
2023-01-08T14:59:06.852Z,101746.00
2023-01-08T15:01:35.176Z,101741.91
2023-01-08T15:04:17.972Z,101741.63
2023-01-08T15:06:46.890Z,101727.78
2023-01-08T15:09:21.891Z,101741.19
2023-01-08T15:11:57.903Z,101750.94
2023-01-08T15:14:27.355Z,101736.91
2023-01-08T15:16:58.054Z,101742.94
2023-01-08T15:19:26.654Z,101744.16
2023-01-08T15:21:57.817Z,101728.91
2023-01-08T15:24:29.361Z,101756.91
2023-01-08T15:26:57.115Z,101728.22
2023-01-08T15:29:33.598Z,101739.56
2023-01-08T15:32:16.061Z,101739.06
2023-01-08T15:34:44.611Z,101740.78
2023-01-08T15:37:13.278Z,101741.44
2023-01-08T15:39:40.680Z,101743.19
2023-01-08T15:42:40.988Z,101715.28
2023-01-08T15:45:19.596Z,101744.59
2023-01-08T15:47:47.133Z,101734.50
2023-01-08T15:50:14.571Z,101740.97
2023-01-08T15:52:43.906Z,101753.56
2023-01-08T15:55:22.938Z,101724.25
2023-01-08T15:57:50.785Z,101732.47
2023-01-08T16:00:20.318Z,101741.44
2023-01-08T16:02:50.002Z,101732.91
2023-01-08T16:05:19.544Z,101733.91
2023-01-08T16:07:47.292Z,101738.94
2023-01-08T16:10:16.351Z,101740.63
2023-01-08T16:12:43.954Z,101714.97
2023-01-08T16:15:12.272Z,101707.81
2023-01-08T16:17:40.306Z,101742.72
2023-01-08T16:20:08.878Z,101735.56
2023-01-08T16:22:36.109Z,101703.97
2023-01-08T16:25:04.000Z,101739.25
2023-01-08T16:27:32.893Z,101712.38
2023-01-08T16:30:00.471Z,101754.50
2023-01-08T16:32:27.750Z,101755.66
2023-01-08T16:34:57.755Z,101758.50
2023-01-08T16:37:25.090Z,101768.97
2023-01-08T16:39:52.377Z,101759.41
2023-01-08T16:42:19.598Z,101764.75
2023-01-08T16:44:46.769Z,101748.81
2023-01-08T16:47:14.014Z,101766.50
2023-01-08T16:49:41.854Z,101755.69
2023-01-08T16:52:10.090Z,101753.69
2023-01-08T16:54:37.565Z,101784.63
2023-01-08T16:57:05.486Z,101749.31
2023-01-08T16:59:33.191Z,101777.03
2023-01-08T17:02:03.494Z,101737.66
2023-01-08T17:04:31.824Z,101781.44
2023-01-08T17:07:03.481Z,101788.66
2023-01-08T17:09:30.823Z,101744.91
2023-01-08T17:11:58.322Z,101759.34
2023-01-08T17:14:25.608Z,101758.13
2023-01-08T17:16:52.972Z,101798.69
2023-01-08T17:19:20.788Z,101797.09
2023-01-08T17:21:50.574Z,101742.44
2023-01-08T17:24:18.171Z,101734.34
2023-01-08T17:26:45.822Z,101783.00
2023-01-08T17:29:13.110Z,101808.28
2023-01-08T17:31:40.648Z,101792.16
2023-01-08T17:37:38.733Z,101763.59
2023-01-08T17:40:06.714Z,101725.06
2023-01-08T17:42:34.108Z,101752.41
2023-01-08T17:45:05.778Z,101724.69
2023-01-08T17:47:34.177Z,101818.28
2023-01-08T17:50:03.502Z,101776.47
2023-01-08T17:52:30.734Z,101823.03
2023-01-08T17:54:58.146Z,101828.59
2023-01-08T17:57:26.682Z,101771.47
2023-01-08T17:59:53.862Z,101795.63
2023-01-08T18:02:21.548Z,101833.50
2023-01-08T18:04:49.094Z,101821.44
2023-01-08T18:07:16.460Z,101820.56
2023-01-08T18:09:45.114Z,101829.59
2023-01-08T18:12:12.597Z,101797.81
2023-01-08T18:14:41.621Z,101798.28
2023-01-08T18:17:08.844Z,101834.22
2023-01-08T18:19:36.233Z,101822.22
2023-01-08T18:22:03.446Z,101804.28
2023-01-08T18:24:30.793Z,101800.72
2023-01-08T18:26:59.713Z,101825.59
2023-01-08T18:29:28.599Z,101829.56
2023-01-08T18:32:06.679Z,101788.06
2023-01-08T18:34:36.932Z,101767.53
2023-01-08T18:37:06.992Z,101760.97
2023-01-08T18:39:36.001Z,101807.66
2023-01-08T18:42:23.733Z,101822.25
2023-01-08T18:44:55.349Z,101838.78
2023-01-08T18:47:29.111Z,101741.22
2023-01-08T18:49:59.259Z,101831.22
2023-01-08T18:52:26.534Z,101829.59
2023-01-08T18:54:53.920Z,101834.34
2023-01-08T18:57:21.217Z,101836.31
2023-01-08T18:59:49.988Z,101830.69
2023-01-08T19:02:24.054Z,101823.78
2023-01-08T19:04:51.629Z,101813.63
2023-01-08T19:07:19.625Z,101797.84
2023-01-08T19:09:46.822Z,101855.34
2023-01-08T19:12:14.263Z,101818.72
2023-01-08T19:14:41.843Z,101828.78
2023-01-08T19:17:09.237Z,101826.00
2023-01-08T19:19:36.705Z,101838.34
2023-01-08T19:22:04.994Z,101778.03
2023-01-08T19:24:32.398Z,101811.78
2023-01-08T19:26:59.573Z,101829.75
2023-01-08T19:29:26.816Z,101854.75
2023-01-08T19:31:54.178Z,101834.78
2023-01-08T19:34:21.424Z,101843.66
2023-01-08T19:36:48.574Z,101842.56
2023-01-08T19:39:15.928Z,101841.00
2023-01-08T19:42:01.539Z,101808.06
2023-01-08T19:44:28.984Z,101779.59
2023-01-08T19:46:56.342Z,101812.47
2023-01-08T19:49:24.100Z,101816.16
2023-01-08T19:51:52.735Z,101831.13
2023-01-08T19:54:22.254Z,101803.44
2023-01-08T19:56:49.604Z,101836.81
2023-01-08T19:59:16.670Z,101809.09
2023-01-08T20:01:48.582Z,101827.16
2023-01-08T20:04:22.403Z,101820.75
2023-01-08T20:06:53.213Z,101746.41
2023-01-08T20:09:45.000Z,101830.28
2023-01-08T20:12:14.248Z,101837.44
2023-01-08T20:14:41.584Z,101787.84
2023-01-08T20:17:08.919Z,101763.66
2023-01-08T20:19:37.009Z,101815.44
2023-01-08T20:22:04.268Z,101827.63
2023-01-08T20:24:33.355Z,101820.38
2023-01-08T20:27:01.899Z,101812.13
2023-01-08T20:32:59.995Z,101765.59
2023-01-08T20:35:27.162Z,101743.66
2023-01-08T20:37:54.445Z,101779.13
2023-01-08T20:40:21.755Z,101802.50
2023-01-08T20:42:49.165Z,101789.66
2023-01-08T20:45:16.616Z,101784.47
2023-01-08T20:47:44.025Z,101794.16
2023-01-08T20:50:19.371Z,101794.19
2023-01-08T20:52:47.858Z,101792.59
2023-01-08T20:55:17.566Z,101794.19
2023-01-08T20:57:45.888Z,101795.03
2023-01-08T21:00:13.378Z,101787.78
2023-01-08T21:02:40.554Z,101797.81
2023-01-08T21:05:08.208Z,101799.88
2023-01-08T21:07:35.418Z,101805.50
2023-01-08T21:10:02.960Z,101805.44
2023-01-08T21:12:31.491Z,101824.25
2023-01-08T21:14:58.763Z,101807.81
2023-01-08T21:17:26.043Z,101813.06
2023-01-08T21:19:53.256Z,101813.84
2023-01-08T21:22:20.572Z,101811.34
2023-01-08T21:24:47.659Z,101818.94
2023-01-08T21:27:15.051Z,101791.63
2023-01-08T21:29:42.474Z,101803.59
2023-01-08T21:32:09.694Z,101791.41
2023-01-08T21:34:36.924Z,101804.22
2023-01-08T21:37:04.420Z,101803.38
2023-01-08T21:39:33.123Z,101808.16
2023-01-08T21:42:19.087Z,101803.50
2023-01-08T21:45:04.605Z,101807.97
2023-01-08T21:47:31.833Z,101794.41
2023-01-08T21:49:59.183Z,101811.47
2023-01-08T21:52:44.906Z,101801.84
2023-01-08T21:55:13.025Z,101802.25
2023-01-08T21:57:40.650Z,101796.03
2023-01-08T22:00:08.693Z,101793.00
2023-01-08T22:02:37.199Z,101805.47
2023-01-08T22:05:05.966Z,101772.34
2023-01-08T22:07:33.202Z,101796.56
2023-01-08T22:10:03.628Z,101800.28
2023-01-08T22:12:30.894Z,101795.00
2023-01-08T22:14:58.426Z,101793.03
2023-01-08T22:17:27.130Z,101787.19
2023-01-08T22:19:54.574Z,101785.34
2023-01-08T22:22:21.955Z,101786.25
2023-01-08T22:24:51.553Z,101790.25
2023-01-08T22:27:19.100Z,101768.41
2023-01-08T22:29:47.638Z,101791.34
2023-01-08T22:32:14.935Z,101786.13
2023-01-08T22:34:43.231Z,101780.34
2023-01-08T22:37:10.476Z,101752.28
2023-01-08T22:39:37.665Z,101760.47
2023-01-08T22:42:05.122Z,101790.94
2023-01-08T22:44:32.454Z,101786.19
2023-01-08T22:47:02.325Z,101732.34
2023-01-08T22:49:29.662Z,101797.00
2023-01-08T22:51:58.777Z,101790.22
2023-01-08T22:54:25.941Z,101781.97
2023-01-08T22:56:53.154Z,101781.75
2023-01-08T22:59:21.486Z,101781.94
2023-01-08T23:01:49.302Z,101765.72
2023-01-08T23:04:16.801Z,101759.53
2023-01-08T23:06:44.230Z,101762.13
2023-01-08T23:09:11.525Z,101756.94
2023-01-08T23:11:38.866Z,101757.00
2023-01-08T23:14:06.235Z,101767.16
2023-01-08T23:16:33.572Z,101761.97
2023-01-08T23:19:01.004Z,101727.84
2023-01-08T23:21:28.748Z,101752.00
2023-01-08T23:23:56.382Z,101748.78
2023-01-08T23:26:26.515Z,101745.59
2023-01-08T23:28:55.672Z,101739.41
2023-01-08T23:31:26.181Z,101729.91
2023-01-08T23:33:53.978Z,101735.09
2023-01-08T23:36:22.268Z,101710.91
2023-01-08T23:38:51.707Z,101719.44
2023-01-08T23:41:21.145Z,101719.47
2023-01-08T23:43:49.432Z,101719.94
2023-01-08T23:46:17.541Z,101739.75
2023-01-08T23:48:45.076Z,101739.38
2023-01-08T23:51:12.334Z,101713.44
2023-01-08T23:53:39.703Z,101710.66
2023-01-08T23:56:07.811Z,101733.19
2023-01-08T23:58:36.281Z,101724.47
